BAW9VA EGKK-TLPL
Flight info
| Callsign | BAW9VA |
|---|---|
| Flight time | N/A |
| Altitude | 38000 |
| Route | IMVUR N63 SAM N19 ADKIK DCT MOPAT DCT MALOT/M083F380 DCT 5230N02000W 49N030W 40N040W/M083F400 30N050W 27N053W 25N055W DCT CITRS/N0474F400 DCT 16N060W DCT FOF UA324 BNE |
| Aircraft | B772/H-SDE2E3FGHIJ5LORVWXY/LB1D1 |
Departure
| Time | N/A |
|---|---|
| Airport | London Gatwick Airport (EGKK) |
Arrival
| Time | 2026-04-25 14:19 |
|---|---|
| Airport | Hewanorra International Airport (TLPL) |
| Time | Latitude | Longitude | Altitude | Speed | Heading |
|---|---|---|---|---|---|
| 2026-04-25 13:53 | 15.71497 | -60.20829 | 40010 ft | 444 kts | 217° |
| 2026-04-25 13:54 | 15.68966 | -60.22675 | 40011 ft | 443 kts | 217° |
| 2026-04-25 13:54 | 15.63927 | -60.26348 | 40004 ft | 443 kts | 217° |
| 2026-04-25 13:55 | 15.58893 | -60.30017 | 40003 ft | 442 kts | 217° |
| 2026-04-25 13:55 | 15.53862 | -60.33682 | 39998 ft | 441 kts | 217° |
| 2026-04-25 13:56 | 15.48829 | -60.37345 | 39998 ft | 441 kts | 217° |
| 2026-04-25 13:56 | 15.43794 | -60.41008 | 40005 ft | 442 kts | 217° |
| 2026-04-25 13:57 | 15.38758 | -60.44669 | 40007 ft | 442 kts | 217° |
| 2026-04-25 13:57 | 15.33710 | -60.48337 | 40007 ft | 443 kts | 216° |
| 2026-04-25 13:58 | 15.28706 | -60.51970 | 39953 ft | 437 kts | 216° |
| 2026-04-25 13:58 | 15.26238 | -60.53761 | 39596 ft | 430 kts | 216° |
| 2026-04-25 13:58 | 15.23776 | -60.55547 | 39243 ft | 435 kts | 216° |
| 2026-04-25 13:58 | 15.21290 | -60.57351 | 38912 ft | 438 kts | 216° |
| 2026-04-25 13:59 | 15.18803 | -60.59155 | 38556 ft | 436 kts | 216° |
| 2026-04-25 13:59 | 15.16319 | -60.60956 | 38144 ft | 433 kts | 216° |
| 2026-04-25 13:59 | 15.13860 | -60.62738 | 37755 ft | 429 kts | 216° |
| 2026-04-25 13:59 | 15.11430 | -60.64498 | 37372 ft | 426 kts | 216° |
| 2026-04-25 14:00 | 15.09822 | -60.65663 | 37104 ft | 425 kts | 216° |
| 2026-04-25 14:00 | 15.06595 | -60.68000 | 36604 ft | 421 kts | 216° |
| 2026-04-25 14:00 | 15.04204 | -60.69731 | 36228 ft | 418 kts | 216° |
| 2026-04-25 14:00 | 15.01855 | -60.71431 | 35868 ft | 416 kts | 216° |
| 2026-04-25 14:01 | 14.99482 | -60.73148 | 35498 ft | 413 kts | 216° |
| 2026-04-25 14:01 | 14.97134 | -60.74846 | 35140 ft | 411 kts | 216° |
| 2026-04-25 14:01 | 14.94804 | -60.76532 | 34804 ft | 409 kts | 215° |
| 2026-04-25 14:01 | 14.92466 | -60.78222 | 34465 ft | 407 kts | 215° |
| 2026-04-25 14:02 | 14.90058 | -60.79712 | 34093 ft | 403 kts | 204° |
| 2026-04-25 14:02 | 14.87412 | -60.80662 | 33741 ft | 403 kts | 198° |
| 2026-04-25 14:02 | 14.84663 | -60.81406 | 33223 ft | 420 kts | 195° |
| 2026-04-25 14:02 | 14.83729 | -60.81639 | 33021 ft | 429 kts | 195° |
| 2026-04-25 14:03 | 14.78705 | -60.82835 | 31781 ft | 437 kts | 195° |
| 2026-04-25 14:03 | 14.75767 | -60.83512 | 30839 ft | 428 kts | 195° |
| 2026-04-25 14:03 | 14.72881 | -60.84165 | 29910 ft | 420 kts | 195° |
| 2026-04-25 14:03 | 14.70050 | -60.84796 | 28847 ft | 412 kts | 194° |
| 2026-04-25 14:04 | 14.67305 | -60.85403 | 27843 ft | 405 kts | 194° |
| 2026-04-25 14:04 | 14.64566 | -60.86015 | 26862 ft | 399 kts | 194° |
| 2026-04-25 14:04 | 14.61869 | -60.86624 | 25924 ft | 396 kts | 194° |
| 2026-04-25 14:04 | 14.59166 | -60.87240 | 25246 ft | 399 kts | 194° |
| 2026-04-25 14:05 | 14.56454 | -60.87864 | 24502 ft | 403 kts | 194° |
| 2026-04-25 14:05 | 14.53705 | -60.88504 | 23747 ft | 407 kts | 194° |
| 2026-04-25 14:05 | 14.50932 | -60.89155 | 22882 ft | 410 kts | 194° |
| 2026-04-25 14:05 | 14.48142 | -60.89815 | 22014 ft | 412 kts | 194° |
| 2026-04-25 14:06 | 14.45340 | -60.90485 | 21170 ft | 414 kts | 194° |
| 2026-04-25 14:06 | 14.42525 | -60.91168 | 20332 ft | 415 kts | 194° |
| 2026-04-25 14:06 | 14.39715 | -60.91858 | 19533 ft | 415 kts | 194° |
| 2026-04-25 14:06 | 14.36906 | -60.92556 | 18745 ft | 415 kts | 194° |
| 2026-04-25 14:07 | 14.34101 | -60.93261 | 17928 ft | 415 kts | 194° |
| 2026-04-25 14:07 | 14.31303 | -60.93970 | 17053 ft | 414 kts | 194° |
| 2026-04-25 14:07 | 14.28512 | -60.94682 | 16201 ft | 412 kts | 194° |
| 2026-04-25 14:07 | 14.25732 | -60.95396 | 15374 ft | 411 kts | 194° |
| 2026-04-25 14:08 | 14.23002 | -60.96100 | 14541 ft | 389 kts | 194° |
| 2026-04-25 14:08 | 14.20506 | -60.96746 | 13736 ft | 360 kts | 194° |
| 2026-04-25 14:08 | 14.18162 | -60.97356 | 12854 ft | 337 kts | 194° |
| 2026-04-25 14:08 | 14.15946 | -60.97935 | 11992 ft | 321 kts | 194° |
| 2026-04-25 14:09 | 14.13807 | -60.98501 | 11159 ft | 316 kts | 194° |
| 2026-04-25 14:09 | 14.11675 | -60.99071 | 10345 ft | 318 kts | 194° |
| 2026-04-25 14:09 | 14.09533 | -60.99651 | 9515 ft | 316 kts | 194° |
| 2026-04-25 14:09 | 14.08817 | -60.99847 | 9222 ft | 316 kts | 194° |
| 2026-04-25 14:10 | 14.05345 | -61.00827 | 7802 ft | 307 kts | 194° |
| 2026-04-25 14:10 | 14.03299 | -61.01428 | 6972 ft | 305 kts | 194° |
| 2026-04-25 14:10 | 14.01296 | -61.02026 | 6165 ft | 302 kts | 194° |
| 2026-04-25 14:10 | 13.99256 | -61.02653 | 5303 ft | 300 kts | 194° |
| 2026-04-25 14:11 | 13.97301 | -61.03371 | 4452 ft | 297 kts | 206° |
| 2026-04-25 14:11 | 13.95702 | -61.04622 | 3637 ft | 289 kts | 221° |
| 2026-04-25 14:11 | 13.94344 | -61.06051 | 3300 ft | 265 kts | 224° |
| 2026-04-25 14:11 | 13.93149 | -61.07383 | 3022 ft | 243 kts | 224° |
| 2026-04-25 14:12 | 13.92038 | -61.08630 | 2629 ft | 230 kts | 224° |
| 2026-04-25 14:12 | 13.90994 | -61.09815 | 2302 ft | 218 kts | 224° |
| 2026-04-25 14:12 | 13.89881 | -61.10808 | 2002 ft | 207 kts | 200° |
| 2026-04-25 14:12 | 13.89005 | -61.11057 | 2011 ft | 190 kts | 186° |
| 2026-04-25 14:13 | 13.87703 | -61.11246 | 2000 ft | 186 kts | 185° |
| 2026-04-25 14:13 | 13.86433 | -61.11446 | 1991 ft | 183 kts | 186° |
| 2026-04-25 14:13 | 13.85157 | -61.11649 | 2007 ft | 190 kts | 186° |
| 2026-04-25 14:13 | 13.83799 | -61.11857 | 2013 ft | 202 kts | 185° |
| 2026-04-25 14:14 | 13.82407 | -61.12064 | 2005 ft | 200 kts | 185° |
| 2026-04-25 14:14 | 13.81016 | -61.12279 | 2005 ft | 203 kts | 185° |
| 2026-04-25 14:14 | 13.79611 | -61.12501 | 2011 ft | 205 kts | 185° |
| 2026-04-25 14:14 | 13.78241 | -61.12408 | 1996 ft | 198 kts | 152° |
| 2026-04-25 14:15 | 13.77158 | -61.11551 | 2005 ft | 196 kts | 135° |
| 2026-04-25 14:15 | 13.76545 | -61.10881 | 1990 ft | 192 kts | 131° |
| 2026-04-25 14:15 | 13.75435 | -61.09521 | 1840 ft | 182 kts | 130° |
| 2026-04-25 14:15 | 13.74641 | -61.08542 | 1734 ft | 174 kts | 129° |
| 2026-04-25 14:16 | 13.73903 | -61.07626 | 1660 ft | 159 kts | 128° |
| 2026-04-25 14:16 | 13.73513 | -61.06639 | 1472 ft | 147 kts | 94° |
| 2026-04-25 14:16 | 13.73456 | -61.05628 | 1375 ft | 138 kts | 99° |
| 2026-04-25 14:16 | 13.73323 | -61.04668 | 1289 ft | 134 kts | 101° |
| 2026-04-25 14:17 | 13.73194 | -61.03732 | 1222 ft | 128 kts | 98° |
| 2026-04-25 14:17 | 13.73251 | -61.02828 | 1308 ft | 130 kts | 85° |
| 2026-04-25 14:17 | 13.73342 | -61.01887 | 1310 ft | 135 kts | 94° |
| 2026-04-25 14:17 | 13.73331 | -61.00925 | 1220 ft | 134 kts | 95° |
| 2026-04-25 14:18 | 13.73326 | -61.00002 | 1111 ft | 131 kts | 93° |
| 2026-04-25 14:18 | 13.73325 | -60.99039 | 887 ft | 135 kts | 90° |
| 2026-04-25 14:18 | 13.73339 | -60.98072 | 562 ft | 137 kts | 92° |
| 2026-04-25 14:18 | 13.73339 | -60.97124 | 230 ft | 126 kts | 92° |
| 2026-04-25 14:19 | 13.73339 | -60.96236 | 41 ft | 124 kts | 93° |
| 2026-04-25 14:19 | 13.73336 | -60.95448 | 24 ft | 94 kts | 91° |
| 2026-04-25 14:19 | 13.73337 | -60.94936 | 20 ft | 50 kts | 90° |
| 2026-04-25 14:19 | 13.73339 | -60.94677 | 20 ft | 24 kts | 90° |
| 2026-04-25 14:20 | 13.73344 | -60.94567 | 21 ft | 9 kts | 61° |
| 2026-04-25 14:20 | 13.73383 | -60.94554 | 20 ft | 10 kts | 355° |
| 2026-04-25 14:20 | 13.73473 | -60.94598 | 23 ft | 12 kts | 326° |
| 2026-04-25 14:20 | 13.73542 | -60.94657 | 22 ft | 14 kts | 311° |
| 2026-04-25 14:21 | 13.73565 | -60.94754 | 24 ft | 15 kts | 269° |
| 2026-04-25 14:21 | 13.73542 | -60.94859 | 24 ft | 16 kts | 232° |
| 2026-04-25 14:21 | 13.73518 | -60.94969 | 21 ft | 17 kts | 271° |
| 2026-04-25 14:21 | 13.73519 | -60.95061 | 21 ft | 2 kts | 270° |